FIN7HM EFHK-EFKU
Flight info
| Callsign | FIN7HM |
|---|---|
| Flight time | N/A |
| Altitude | 29000 |
| Route | IDEPI Y232 ADOPO DCT ATLUL |
| Aircraft | A320/M-SDE3FGHIRWY/LB1 |
Departure
| Time | 2026-05-07 14:19 |
|---|---|
| Airport | Helsinki Vantaa Airport (EFHK) |
Arrival
| Time | N/A |
|---|---|
| Airport | Kuopio Airport (EFKU) |
| Time | Latitude | Longitude | Altitude | Speed | Heading |
|---|---|---|---|---|---|
| 2026-05-07 14:09 | 60.31801 | 24.97176 | 161 ft | 3 kts | 272° |
| 2026-05-07 14:10 | 60.31796 | 24.97219 | 161 ft | 3 kts | 311° |
| 2026-05-07 14:10 | 60.31789 | 24.97233 | 161 ft | 1 kts | 333° |
| 2026-05-07 14:12 | 60.31789 | 24.97232 | 161 ft | 1 kts | 333° |
| 2026-05-07 14:12 | 60.31800 | 24.97222 | 161 ft | 2 kts | 332° |
| 2026-05-07 14:13 | 60.31810 | 24.97211 | 161 ft | 1 kts | 332° |
| 2026-05-07 14:13 | 60.31816 | 24.97204 | 161 ft | 1 kts | 332° |
| 2026-05-07 14:13 | 60.31825 | 24.97195 | 161 ft | 6 kts | 332° |
| 2026-05-07 14:13 | 60.31932 | 24.97081 | 161 ft | 20 kts | 332° |
| 2026-05-07 14:14 | 60.32058 | 24.96947 | 161 ft | 21 kts | 332° |
| 2026-05-07 14:14 | 60.32185 | 24.96808 | 161 ft | 21 kts | 330° |
| 2026-05-07 14:14 | 60.32311 | 24.96650 | 161 ft | 22 kts | 329° |
| 2026-05-07 14:14 | 60.32444 | 24.96503 | 161 ft | 23 kts | 332° |
| 2026-05-07 14:15 | 60.32580 | 24.96340 | 161 ft | 24 kts | 326° |
| 2026-05-07 14:15 | 60.32727 | 24.96150 | 161 ft | 26 kts | 329° |
| 2026-05-07 14:15 | 60.32895 | 24.95978 | 161 ft | 28 kts | 334° |
| 2026-05-07 14:15 | 60.33019 | 24.95838 | 161 ft | 14 kts | 327° |
| 2026-05-07 14:16 | 60.33094 | 24.95733 | 161 ft | 10 kts | 324° |
| 2026-05-07 14:16 | 60.33157 | 24.95634 | 161 ft | 17 kts | 321° |
| 2026-05-07 14:16 | 60.33211 | 24.95436 | 161 ft | 16 kts | 261° |
| 2026-05-07 14:16 | 60.33152 | 24.95271 | 161 ft | 14 kts | 227° |
| 2026-05-07 14:17 | 60.33107 | 24.95042 | 161 ft | 20 kts | 269° |
| 2026-05-07 14:17 | 60.33111 | 24.94861 | 161 ft | 19 kts | 276° |
| 2026-05-07 14:17 | 60.33118 | 24.94568 | 166 ft | 0 kts | 273° |
| 2026-05-07 14:17 | 60.33118 | 24.94567 | 166 ft | 1 kts | 273° |
| 2026-05-07 14:18 | 60.33088 | 24.94341 | 174 ft | 26 kts | 232° |
| 2026-05-07 14:18 | 60.32955 | 24.94043 | 177 ft | 42 kts | 228° |
| 2026-05-07 14:18 | 60.32732 | 24.93553 | 173 ft | 96 kts | 227° |
| 2026-05-07 14:18 | 60.32125 | 24.92224 | 169 ft | 158 kts | 226° |
| 2026-05-07 14:19 | 60.31375 | 24.90537 | 812 ft | 161 kts | 225° |
| 2026-05-07 14:19 | 60.30638 | 24.88840 | 1662 ft | 165 kts | 232° |
| 2026-05-07 14:19 | 60.30184 | 24.86540 | 2195 ft | 193 kts | 260° |
| 2026-05-07 14:19 | 60.30389 | 24.83749 | 2682 ft | 217 kts | 291° |
| 2026-05-07 14:20 | 60.31030 | 24.80820 | 3300 ft | 234 kts | 293° |
| 2026-05-07 14:20 | 60.31679 | 24.77897 | 4194 ft | 236 kts | 295° |
| 2026-05-07 14:20 | 60.32444 | 24.74964 | 5190 ft | 236 kts | 300° |
| 2026-05-07 14:20 | 60.33250 | 24.72062 | 6162 ft | 237 kts | 301° |
| 2026-05-07 14:21 | 60.34072 | 24.69156 | 7049 ft | 240 kts | 303° |
| 2026-05-07 14:21 | 60.35183 | 24.66617 | 7773 ft | 251 kts | 323° |
| 2026-05-07 14:21 | 60.36828 | 24.65145 | 8432 ft | 268 kts | 348° |
| 2026-05-07 14:21 | 60.38653 | 24.65232 | 9288 ft | 279 kts | 13° |
| 2026-05-07 14:22 | 60.40422 | 24.66957 | 10129 ft | 290 kts | 31° |
| 2026-05-07 14:22 | 60.42172 | 24.69308 | 10574 ft | 313 kts | 32° |
| 2026-05-07 14:22 | 60.44031 | 24.71851 | 11094 ft | 329 kts | 32° |
| 2026-05-07 14:22 | 60.45933 | 24.74509 | 11851 ft | 337 kts | 35° |
| 2026-05-07 14:23 | 60.47673 | 24.77792 | 12619 ft | 347 kts | 47° |
| 2026-05-07 14:23 | 60.49089 | 24.81839 | 13390 ft | 357 kts | 59° |
| 2026-05-07 14:23 | 60.50183 | 24.86422 | 14132 ft | 364 kts | 64° |
| 2026-05-07 14:23 | 60.51260 | 24.91128 | 14786 ft | 371 kts | 64° |
| 2026-05-07 14:24 | 60.52362 | 24.95920 | 15468 ft | 377 kts | 64° |
| 2026-05-07 14:24 | 60.53480 | 25.00801 | 16149 ft | 383 kts | 64° |
| 2026-05-07 14:24 | 60.54609 | 25.05740 | 16836 ft | 388 kts | 64° |
| 2026-05-07 14:24 | 60.55738 | 25.10695 | 17504 ft | 394 kts | 64° |
| 2026-05-07 14:25 | 60.56895 | 25.15792 | 18194 ft | 399 kts | 64° |
| 2026-05-07 14:25 | 60.58062 | 25.20952 | 18762 ft | 404 kts | 64° |
| 2026-05-07 14:25 | 60.59236 | 25.26158 | 19398 ft | 407 kts | 64° |
| 2026-05-07 14:25 | 60.60426 | 25.31442 | 19994 ft | 412 kts | 64° |
| 2026-05-07 14:26 | 60.61627 | 25.36789 | 20570 ft | 417 kts | 65° |
| 2026-05-07 14:26 | 60.62839 | 25.42193 | 21137 ft | 422 kts | 65° |
| 2026-05-07 14:26 | 60.64070 | 25.47686 | 21720 ft | 427 kts | 65° |
| 2026-05-07 14:26 | 60.65306 | 25.53229 | 22286 ft | 432 kts | 65° |
| 2026-05-07 14:27 | 60.66555 | 25.58856 | 22876 ft | 437 kts | 65° |
| 2026-05-07 14:27 | 60.67797 | 25.64479 | 23451 ft | 443 kts | 65° |
| 2026-05-07 14:27 | 60.69057 | 25.70111 | 23916 ft | 448 kts | 63° |
| 2026-05-07 14:27 | 60.70646 | 25.75605 | 24375 ft | 451 kts | 53° |
| 2026-05-07 14:28 | 60.72626 | 25.80582 | 24838 ft | 452 kts | 43° |
| 2026-05-07 14:28 | 60.74961 | 25.84881 | 25275 ft | 452 kts | 33° |
| 2026-05-07 14:28 | 60.77540 | 25.88571 | 25728 ft | 454 kts | 30° |
| 2026-05-07 14:28 | 60.78182 | 25.89473 | 25834 ft | 455 kts | 30° |